sensor_id;sensor_type;location;lat;lon;timestamp;pressure;altitude;pressure_sealevel;temperature;humidity
74270;BME280;62754;48.252;11.654;2023-09-08T00:01:17;96417.06;;;14.89;90.41
74270;BME280;62754;48.252;11.654;2023-09-08T00:03:45;96412.81;;;14.88;90.51
74270;BME280;62754;48.252;11.654;2023-09-08T00:06:10;96415.00;;;14.83;90.71
74270;BME280;62754;48.252;11.654;2023-09-08T00:08:36;96414.22;;;14.73;91.29
74270;BME280;62754;48.252;11.654;2023-09-08T00:11:06;96411.34;;;14.76;91.36
74270;BME280;62754;48.252;11.654;2023-09-08T00:13:34;96417.13;;;14.70;91.62
74270;BME280;62754;48.252;11.654;2023-09-08T00:16:00;96414.53;;;14.60;91.86
74270;BME280;62754;48.252;11.654;2023-09-08T00:18:28;96414.13;;;14.65;92.68
74270;BME280;62754;48.252;11.654;2023-09-08T00:20:58;96418.63;;;14.63;92.79
74270;BME280;62754;48.252;11.654;2023-09-08T00:23:26;96412.75;;;14.61;92.39
74270;BME280;62754;48.252;11.654;2023-09-08T00:25:54;96409.91;;;14.54;92.98
74270;BME280;62754;48.252;11.654;2023-09-08T00:28:22;96410.59;;;14.47;92.49
74270;BME280;62754;48.252;11.654;2023-09-08T00:30:48;96412.25;;;14.48;92.53
74270;BME280;62754;48.252;11.654;2023-09-08T00:33:16;96411.28;;;14.49;93.02
74270;BME280;62754;48.252;11.654;2023-09-08T00:35:50;96405.00;;;14.42;93.42
74270;BME280;62754;48.252;11.654;2023-09-08T00:38:19;96399.28;;;14.38;94.35
74270;BME280;62754;48.252;11.654;2023-09-08T00:40:47;96403.13;;;14.44;93.86
74270;BME280;62754;48.252;11.654;2023-09-08T00:43:13;96402.81;;;14.37;94.12
74270;BME280;62754;48.252;11.654;2023-09-08T00:45:42;96402.00;;;14.37;94.41
74270;BME280;62754;48.252;11.654;2023-09-08T00:48:08;96406.53;;;14.35;94.24
74270;BME280;62754;48.252;11.654;2023-09-08T00:50:36;96399.66;;;14.33;94.55
74270;BME280;62754;48.252;11.654;2023-09-08T00:53:03;96405.41;;;14.27;94.49
74270;BME280;62754;48.252;11.654;2023-09-08T00:55:30;96401.31;;;14.25;94.58
74270;BME280;62754;48.252;11.654;2023-09-08T00:57:57;96412.66;;;14.24;94.84
74270;BME280;62754;48.252;11.654;2023-09-08T01:00:25;96409.78;;;14.27;94.92
74270;BME280;62754;48.252;11.654;2023-09-08T01:02:51;96410.88;;;14.24;94.34
74270;BME280;62754;48.252;11.654;2023-09-08T01:05:17;96411.41;;;14.18;95.20
74270;BME280;62754;48.252;11.654;2023-09-08T01:07:48;96405.81;;;14.13;95.37
74270;BME280;62754;48.252;11.654;2023-09-08T01:10:16;96403.22;;;14.13;96.15
74270;BME280;62754;48.252;11.654;2023-09-08T01:12:42;96400.91;;;14.10;96.35
74270;BME280;62754;48.252;11.654;2023-09-08T01:15:08;96397.22;;;14.03;96.72
74270;BME280;62754;48.252;11.654;2023-09-08T01:17:34;96405.81;;;14.04;96.75
74270;BME280;62754;48.252;11.654;2023-09-08T01:20:06;96398.16;;;14.02;96.06
74270;BME280;62754;48.252;11.654;2023-09-08T01:25:28;96405.13;;;14.02;96.38
74270;BME280;62754;48.252;11.654;2023-09-08T01:27:57;96410.97;;;13.94;96.69
74270;BME280;62754;48.252;11.654;2023-09-08T01:30:26;96407.44;;;13.95;96.95
74270;BME280;62754;48.252;11.654;2023-09-08T01:32:56;96403.91;;;13.96;96.91
74270;BME280;62754;48.252;11.654;2023-09-08T01:35:24;96405.81;;;13.94;97.52
74270;BME280;62754;48.252;11.654;2023-09-08T01:37:52;96407.31;;;13.97;97.06
74270;BME280;62754;48.252;11.654;2023-09-08T01:40:18;96403.22;;;13.94;97.38
74270;BME280;62754;48.252;11.654;2023-09-08T01:42:44;96395.84;;;13.99;96.08
74270;BME280;62754;48.252;11.654;2023-09-08T01:45:13;96403.22;;;13.94;97.20
74270;BME280;62754;48.252;11.654;2023-09-08T01:47:39;96407.19;;;13.89;97.10
74270;BME280;62754;48.252;11.654;2023-09-08T01:50:07;96404.03;;;13.85;97.28
74270;BME280;62754;48.252;11.654;2023-09-08T01:52:33;96396.56;;;13.82;97.57
74270;BME280;62754;48.252;11.654;2023-09-08T01:54:59;96397.25;;;13.94;97.17
74270;BME280;62754;48.252;11.654;2023-09-08T01:57:27;96396.53;;;13.92;97.21
74270;BME280;62754;48.252;11.654;2023-09-08T01:59:55;96393.41;;;13.78;97.68
74270;BME280;62754;48.252;11.654;2023-09-08T02:02:20;96390.94;;;13.77;98.20
74270;BME280;62754;48.252;11.654;2023-09-08T02:04:47;96391.75;;;13.68;98.64
74270;BME280;62754;48.252;11.654;2023-09-08T02:07:18;96390.38;;;13.64;99.12
74270;BME280;62754;48.252;11.654;2023-09-08T02:09:45;96386.97;;;13.63;98.90
74270;BME280;62754;48.252;11.654;2023-09-08T02:12:13;96388.34;;;13.58;99.53
74270;BME280;62754;48.252;11.654;2023-09-08T02:14:41;96387.50;;;13.57;99.49
74270;BME280;62754;48.252;11.654;2023-09-08T02:17:12;96389.56;;;13.54;99.88
74270;BME280;62754;48.252;11.654;2023-09-08T02:19:37;96388.84;;;13.52;100.00
74270;BME280;62754;48.252;11.654;2023-09-08T02:22:03;96385.72;;;13.48;100.00
74270;BME280;62754;48.252;11.654;2023-09-08T02:24:29;96386.25;;;13.42;100.00
74270;BME280;62754;48.252;11.654;2023-09-08T02:26:54;96387.47;;;13.48;99.46
74270;BME280;62754;48.252;11.654;2023-09-08T02:29:23;96392.09;;;13.44;99.98
74270;BME280;62754;48.252;11.654;2023-09-08T02:31:49;96389.66;;;13.43;100.00
74270;BME280;62754;48.252;11.654;2023-09-08T02:34:17;96389.78;;;13.41;100.00
74270;BME280;62754;48.252;11.654;2023-09-08T02:36:43;96385.94;;;13.26;100.00
74270;BME280;62754;48.252;11.654;2023-09-08T02:39:09;96390.16;;;13.27;100.00
74270;BME280;62754;48.252;11.654;2023-09-08T02:41:37;96390.69;;;13.21;99.86
74270;BME280;62754;48.252;11.654;2023-09-08T02:44:05;96390.13;;;13.17;99.51
74270;BME280;62754;48.252;11.654;2023-09-08T02:46:31;96385.38;;;13.13;99.33
74270;BME280;62754;48.252;11.654;2023-09-08T02:48:59;96389.72;;;13.12;99.85
74270;BME280;62754;48.252;11.654;2023-09-08T02:51:25;96382.31;;;13.08;100.00
74270;BME280;62754;48.252;11.654;2023-09-08T02:53:50;96381.19;;;13.01;100.00
74270;BME280;62754;48.252;11.654;2023-09-08T02:56:18;96383.63;;;13.02;99.82
74270;BME280;62754;48.252;11.654;2023-09-08T02:58:47;96383.84;;;13.10;100.00
74270;BME280;62754;48.252;11.654;2023-09-08T03:01:16;96383.13;;;13.08;100.00
74270;BME280;62754;48.252;11.654;2023-09-08T03:03:46;96384.91;;;13.08;100.00
74270;BME280;62754;48.252;11.654;2023-09-08T03:06:13;96382.44;;;13.06;100.00
74270;BME280;62754;48.252;11.654;2023-09-08T03:08:42;96385.72;;;13.08;100.00
74270;BME280;62754;48.252;11.654;2023-09-08T03:11:10;96390.06;;;13.08;100.00
74270;BME280;62754;48.252;11.654;2023-09-08T03:13:35;96393.25;;;13.11;100.00
74270;BME280;62754;48.252;11.654;2023-09-08T03:16:04;96384.06;;;13.07;100.00
74270;BME280;62754;48.252;11.654;2023-09-08T03:18:33;96382.44;;;13.06;100.00
74270;BME280;62754;48.252;11.654;2023-09-08T03:20:59;96382.59;;;13.05;100.00
74270;BME280;62754;48.252;11.654;2023-09-08T03:23:25;96378.19;;;12.96;100.00
74270;BME280;62754;48.252;11.654;2023-09-08T03:25:53;96381.84;;;12.93;100.00
74270;BME280;62754;48.252;11.654;2023-09-08T03:28:21;96388.63;;;12.84;100.00
74270;BME280;62754;48.252;11.654;2023-09-08T03:30:49;96391.28;;;12.73;100.00
74270;BME280;62754;48.252;11.654;2023-09-08T03:33:15;96396.13;;;12.67;100.00
74270;BME280;62754;48.252;11.654;2023-09-08T03:35:40;96386.94;;;12.74;100.00
74270;BME280;62754;48.252;11.654;2023-09-08T03:38:08;96389.75;;;12.71;100.00
74270;BME280;62754;48.252;11.654;2023-09-08T03:40:36;96392.13;;;12.53;100.00
74270;BME280;62754;48.252;11.654;2023-09-08T03:43:05;96390.22;;;12.55;100.00
74270;BME280;62754;48.252;11.654;2023-09-08T03:45:33;96396.78;;;12.38;100.00
74270;BME280;62754;48.252;11.654;2023-09-08T03:47:58;96394.63;;;12.43;100.00
74270;BME280;62754;48.252;11.654;2023-09-08T03:50:24;96399.06;;;12.53;100.00
74270;BME280;62754;48.252;11.654;2023-09-08T03:52:52;96403.63;;;12.39;100.00
74270;BME280;62754;48.252;11.654;2023-09-08T03:55:20;96399.22;;;12.40;100.00
74270;BME280;62754;48.252;11.654;2023-09-08T03:57:49;96396.34;;;12.33;100.00
74270;BME280;62754;48.252;11.654;2023-09-08T04:00:15;96392.25;;;12.31;100.00
74270;BME280;62754;48.252;11.654;2023-09-08T04:02:43;96391.44;;;12.30;100.00
74270;BME280;62754;48.252;11.654;2023-09-08T04:05:11;96396.53;;;12.41;100.00
74270;BME280;62754;48.252;11.654;2023-09-08T04:07:39;96396.44;;;12.43;100.00
74270;BME280;62754;48.252;11.654;2023-09-08T04:10:05;96400.50;;;12.46;100.00
74270;BME280;62754;48.252;11.654;2023-09-08T04:12:31;96404.84;;;12.45;100.00
74270;BME280;62754;48.252;11.654;2023-09-08T04:14:57;96402.63;;;12.40;100.00
74270;BME280;62754;48.252;11.654;2023-09-08T04:17:25;96401.19;;;12.48;100.00
74270;BME280;62754;48.252;11.654;2023-09-08T04:19:50;96398.75;;;12.46;100.00
74270;BME280;62754;48.252;11.654;2023-09-08T04:22:16;96395.91;;;12.49;100.00
74270;BME280;62754;48.252;11.654;2023-09-08T04:24:44;96400.41;;;12.47;100.00
74270;BME280;62754;48.252;11.654;2023-09-08T04:27:15;96392.13;;;12.32;100.00
74270;BME280;62754;48.252;11.654;2023-09-08T04:29:40;96395.53;;;12.33;100.00
74270;BME280;62754;48.252;11.654;2023-09-08T04:32:08;96395.16;;;12.37;100.00
74270;BME280;62754;48.252;11.654;2023-09-08T04:34:38;96391.44;;;12.30;100.00
74270;BME280;62754;48.252;11.654;2023-09-08T04:37:04;96393.09;;;12.31;100.00
74270;BME280;62754;48.252;11.654;2023-09-08T04:39:33;96403.91;;;12.25;100.00
74270;BME280;62754;48.252;11.654;2023-09-08T04:42:03;96402.19;;;12.15;100.00
74270;BME280;62754;48.252;11.654;2023-09-08T04:44:31;96401.13;;;12.17;100.00
74270;BME280;62754;48.252;11.654;2023-09-08T04:46:59;96398.91;;;12.13;100.00
74270;BME280;62754;48.252;11.654;2023-09-08T04:49:28;96405.72;;;12.14;100.00
74270;BME280;62754;48.252;11.654;2023-09-08T04:51:58;96407.72;;;12.10;100.00
74270;BME280;62754;48.252;11.654;2023-09-08T04:54:24;96408.47;;;12.01;100.00
74270;BME280;62754;48.252;11.654;2023-09-08T04:56:52;96405.94;;;11.90;100.00
74270;BME280;62754;48.252;11.654;2023-09-08T04:59:17;96412.94;;;11.99;100.00
74270;BME280;62754;48.252;11.654;2023-09-08T05:01:43;96411.66;;;12.05;100.00
74270;BME280;62754;48.252;11.654;2023-09-08T05:04:09;96415.28;;;12.02;100.00
74270;BME280;62754;48.252;11.654;2023-09-08T05:06:35;96409.53;;;11.99;100.00
74270;BME280;62754;48.252;11.654;2023-09-08T05:09:03;96405.81;;;12.23;100.00
74270;BME280;62754;48.252;11.654;2023-09-08T05:11:31;96405.53;;;12.26;100.00
74270;BME280;62754;48.252;11.654;2023-09-08T05:13:59;96412.09;;;12.30;100.00
74270;BME280;62754;48.252;11.654;2023-09-08T05:16:29;96411.03;;;12.33;100.00
74270;BME280;62754;48.252;11.654;2023-09-08T05:18:55;96410.41;;;12.40;100.00
74270;BME280;62754;48.252;11.654;2023-09-08T05:21:21;96418.59;;;12.46;100.00
74270;BME280;62754;48.252;11.654;2023-09-08T05:23:49;96421.50;;;12.52;100.00
74270;BME280;62754;48.252;11.654;2023-09-08T05:26:17;96420.75;;;12.61;100.00
74270;BME280;62754;48.252;11.654;2023-09-08T05:28:42;96420.38;;;12.66;100.00
74270;BME280;62754;48.252;11.654;2023-09-08T05:31:10;96424.56;;;12.67;100.00
74270;BME280;62754;48.252;11.654;2023-09-08T05:33:38;96419.34;;;12.78;100.00
74270;BME280;62754;48.252;11.654;2023-09-08T05:36:04;96426.47;;;12.85;100.00
74270;BME280;62754;48.252;11.654;2023-09-08T05:38:30;96438.00;;;12.81;100.00
74270;BME280;62754;48.252;11.654;2023-09-08T05:40:56;96435.16;;;12.84;100.00
74270;BME280;62754;48.252;11.654;2023-09-08T05:43:25;96429.13;;;13.05;100.00
74270;BME280;62754;48.252;11.654;2023-09-08T05:45:53;96435.47;;;13.21;100.00
74270;BME280;62754;48.252;11.654;2023-09-08T05:48:20;96437.31;;;13.30;100.00
74270;BME280;62754;48.252;11.654;2023-09-08T05:50:48;96439.13;;;13.40;100.00
74270;BME280;62754;48.252;11.654;2023-09-08T05:53:14;96436.69;;;13.57;100.00
74270;BME280;62754;48.252;11.654;2023-09-08T05:55:40;96436.59;;;13.59;100.00
74270;BME280;62754;48.252;11.654;2023-09-08T05:58:06;96436.47;;;13.70;100.00
74270;BME280;62754;48.252;11.654;2023-09-08T06:00:34;96440.56;;;13.82;100.00
74270;BME280;62754;48.252;11.654;2023-09-08T06:03:00;96443.03;;;13.93;100.00
74270;BME280;62754;48.252;11.654;2023-09-08T06:05:28;96448.09;;;14.04;100.00
74270;BME280;62754;48.252;11.654;2023-09-08T06:07:56;96450.28;;;14.09;100.00
74270;BME280;62754;48.252;11.654;2023-09-08T06:10:24;96449.06;;;14.22;100.00
74270;BME280;62754;48.252;11.654;2023-09-08T06:12:52;96455.47;;;14.28;100.00
74270;BME280;62754;48.252;11.654;2023-09-08T06:15:20;96453.06;;;14.36;100.00
74270;BME280;62754;48.252;11.654;2023-09-08T06:17:50;96452.38;;;14.44;100.00
74270;BME280;62754;48.252;11.654;2023-09-08T06:20:18;96450.28;;;14.66;100.00
74270;BME280;62754;48.252;11.654;2023-09-08T06:22:44;96455.16;;;14.79;100.00
74270;BME280;62754;48.252;11.654;2023-09-08T06:25:09;96458.16;;;14.94;100.00
74270;BME280;62754;48.252;11.654;2023-09-08T06:27:35;96454.84;;;15.01;100.00
74270;BME280;62754;48.252;11.654;2023-09-08T06:30:01;96456.22;;;15.05;100.00
74270;BME280;62754;48.252;11.654;2023-09-08T06:32:29;96453.16;;;15.19;97.96
74270;BME280;62754;48.252;11.654;2023-09-08T06:34:57;96452.16;;;15.30;97.70
74270;BME280;62754;48.252;11.654;2023-09-08T06:37:25;96461.41;;;15.42;96.44
74270;BME280;62754;48.252;11.654;2023-09-08T06:39:53;96458.38;;;15.47;97.18
74270;BME280;62754;48.252;11.654;2023-09-08T06:42:19;96459.34;;;15.55;97.49
74270;BME280;62754;48.252;11.654;2023-09-08T06:44:47;96451.56;;;15.73;96.98
74270;BME280;62754;48.252;11.654;2023-09-08T06:47:13;96459.06;;;15.76;95.04
74270;BME280;62754;48.252;11.654;2023-09-08T06:49:38;96463.84;;;15.81;95.22
74270;BME280;62754;48.252;11.654;2023-09-08T06:52:04;96469.41;;;15.86;94.66
74270;BME280;62754;48.252;11.654;2023-09-08T06:54:30;96455.63;;;16.03;93.56
74270;BME280;62754;48.252;11.654;2023-09-08T06:56:56;96460.84;;;16.20;92.52
74270;BME280;62754;48.252;11.654;2023-09-08T06:59:25;96457.31;;;16.30;91.89
74270;BME280;62754;48.252;11.654;2023-09-08T07:01:53;96464.31;;;16.47;90.24
74270;BME280;62754;48.252;11.654;2023-09-08T07:04:19;96459.72;;;16.58;89.81
74270;BME280;62754;48.252;11.654;2023-09-08T07:06:44;96460.63;;;16.67;89.56
74270;BME280;62754;48.252;11.654;2023-09-08T07:09:10;96457.91;;;16.77;88.34
74270;BME280;62754;48.252;11.654;2023-09-08T07:11:38;96460.75;;;16.83;86.68
74270;BME280;62754;48.252;11.654;2023-09-08T07:14:06;96460.84;;;16.99;85.99
74270;BME280;62754;48.252;11.654;2023-09-08T07:16:32;96462.88;;;17.13;86.02
74270;BME280;62754;48.252;11.654;2023-09-08T07:18:58;96464.22;;;17.18;85.59
74270;BME280;62754;48.252;11.654;2023-09-08T07:21:26;96466.69;;;17.27;84.42
74270;BME280;62754;48.252;11.654;2023-09-08T07:23:51;96467.97;;;17.49;85.02
74270;BME280;62754;48.252;11.654;2023-09-08T07:26:23;96467.19;;;17.56;83.45
74270;BME280;62754;48.252;11.654;2023-09-08T07:28:48;96467.47;;;17.53;84.00
74270;BME280;62754;48.252;11.654;2023-09-08T07:31:16;96461.53;;;17.69;84.04
74270;BME280;62754;48.252;11.654;2023-09-08T07:33:42;96466.50;;;17.96;83.07
74270;BME280;62754;48.252;11.654;2023-09-08T07:36:10;96455.66;;;18.17;83.32
74270;BME280;62754;48.252;11.654;2023-09-08T07:38:38;96453.41;;;18.30;81.26
74270;BME280;62754;48.252;11.654;2023-09-08T07:41:04;96466.75;;;18.35;81.88
74270;BME280;62754;48.252;11.654;2023-09-08T07:43:30;96462.03;;;18.39;81.42
74270;BME280;62754;48.252;11.654;2023-09-08T07:45:58;96453.75;;;18.60;80.20
74270;BME280;62754;48.252;11.654;2023-09-08T07:48:23;96461.75;;;18.82;79.52
74270;BME280;62754;48.252;11.654;2023-09-08T07:50:49;96463.66;;;19.04;79.25
74270;BME280;62754;48.252;11.654;2023-09-08T07:53:17;96468.88;;;19.21;78.33
74270;BME280;62754;48.252;11.654;2023-09-08T07:55:46;96458.72;;;19.42;78.55
74270;BME280;62754;48.252;11.654;2023-09-08T07:58:12;96463.00;;;19.74;76.07
74270;BME280;62754;48.252;11.654;2023-09-08T08:00:37;96468.56;;;19.71;76.50
74270;BME280;62754;48.252;11.654;2023-09-08T08:03:03;96458.47;;;19.98;74.47
74270;BME280;62754;48.252;11.654;2023-09-08T08:05:29;96465.66;;;19.96;74.70
74270;BME280;62754;48.252;11.654;2023-09-08T08:07:55;96467.47;;;20.35;73.51
74270;BME280;62754;48.252;11.654;2023-09-08T08:10:21;96463.41;;;20.47;72.82
74270;BME280;62754;48.252;11.654;2023-09-08T08:12:49;96460.78;;;20.92;71.46
74270;BME280;62754;48.252;11.654;2023-09-08T08:15:15;96464.13;;;21.01;71.26
74270;BME280;62754;48.252;11.654;2023-09-08T08:17:40;96466.84;;;21.08;70.86
74270;BME280;62754;48.252;11.654;2023-09-08T08:20:11;96462.03;;;21.49;69.90
74270;BME280;62754;48.252;11.654;2023-09-08T08:22:37;96468.25;;;21.33;69.57
74270;BME280;62754;48.252;11.654;2023-09-08T08:25:03;96465.84;;;21.46;69.19
74270;BME280;62754;48.252;11.654;2023-09-08T08:27:31;96463.47;;;21.80;67.59
74270;BME280;62754;48.252;11.654;2023-09-08T08:29:59;96471.22;;;21.89;66.68
74270;BME280;62754;48.252;11.654;2023-09-08T08:32:25;96465.81;;;22.05;67.62
74270;BME280;62754;48.252;11.654;2023-09-08T08:34:53;96459.81;;;22.11;67.06
74270;BME280;62754;48.252;11.654;2023-09-08T08:37:22;96459.53;;;22.20;66.05
74270;BME280;62754;48.252;11.654;2023-09-08T08:39:48;96461.22;;;22.28;65.52
74270;BME280;62754;48.252;11.654;2023-09-08T08:42:14;96459.72;;;22.61;64.72
74270;BME280;62754;48.252;11.654;2023-09-08T08:44:43;96469.53;;;22.95;62.92
74270;BME280;62754;48.252;11.654;2023-09-08T08:47:10;96458.06;;;22.60;63.96
74270;BME280;62754;48.252;11.654;2023-09-08T08:49:40;96466.84;;;22.46;65.70
74270;BME280;62754;48.252;11.654;2023-09-08T08:52:08;96453.03;;;22.59;65.24
74270;BME280;62754;48.252;11.654;2023-09-08T08:54:39;96456.00;;;22.98;64.20
74270;BME280;62754;48.252;11.654;2023-09-08T08:57:09;96462.75;;;23.07;64.65
74270;BME280;62754;48.252;11.654;2023-09-08T08:59:36;96456.50;;;22.87;64.61
74270;BME280;62754;48.252;11.654;2023-09-08T09:02:02;96453.06;;;22.87;65.25
74270;BME280;62754;48.252;11.654;2023-09-08T09:04:29;96456.84;;;22.77;63.51
74270;BME280;62754;48.252;11.654;2023-09-08T09:06:54;96453.16;;;22.93;63.41
74270;BME280;62754;48.252;11.654;2023-09-08T09:09:23;96451.53;;;23.20;62.17
74270;BME280;62754;48.252;11.654;2023-09-08T09:11:50;96449.09;;;23.25;62.74
74270;BME280;62754;48.252;11.654;2023-09-08T09:14:19;96454.47;;;23.38;62.56
74270;BME280;62754;48.252;11.654;2023-09-08T09:16:44;96449.69;;;23.48;60.06
74270;BME280;62754;48.252;11.654;2023-09-08T09:19:19;96449.63;;;23.14;62.37
74270;BME280;62754;48.252;11.654;2023-09-08T09:21:48;96446.72;;;23.30;62.78
74270;BME280;62754;48.252;11.654;2023-09-08T09:24:15;96439.16;;;23.48;61.91
74270;BME280;62754;48.252;11.654;2023-09-08T09:26:43;96439.97;;;23.49;62.33
74270;BME280;62754;48.252;11.654;2023-09-08T09:29:17;96439.22;;;23.27;61.81
74270;BME280;62754;48.252;11.654;2023-09-08T09:34:25;96437.03;;;23.03;64.75
74270;BME280;62754;48.252;11.654;2023-09-08T09:36:51;96439.78;;;23.22;63.42
74270;BME280;62754;48.252;11.654;2023-09-08T09:39:21;96438.44;;;23.33;63.40
74270;BME280;62754;48.252;11.654;2023-09-08T09:41:48;96437.97;;;23.23;62.50
74270;BME280;62754;48.252;11.654;2023-09-08T09:44:16;96431.59;;;23.39;62.31
74270;BME280;62754;48.252;11.654;2023-09-08T09:46:47;96432.41;;;23.39;61.72
74270;BME280;62754;48.252;11.654;2023-09-08T09:49:14;96436.84;;;23.32;62.98
74270;BME280;62754;48.252;11.654;2023-09-08T09:51:43;96435.78;;;23.61;62.57
74270;BME280;62754;48.252;11.654;2023-09-08T09:54:15;96432.09;;;23.96;60.29
74270;BME280;62754;48.252;11.654;2023-09-08T09:56:41;96431.97;;;24.17;59.09
74270;BME280;62754;48.252;11.654;2023-09-08T09:59:08;96430.81;;;24.53;58.50
74270;BME280;62754;48.252;11.654;2023-09-08T10:01:37;96419.06;;;24.49;57.28
74270;BME280;62754;48.252;11.654;2023-09-08T10:04:03;96416.28;;;24.90;55.89
74270;BME280;62754;48.252;11.654;2023-09-08T10:06:39;96418.84;;;25.36;54.10
74270;BME280;62754;48.252;11.654;2023-09-08T10:09:06;96426.31;;;25.58;53.40
74270;BME280;62754;48.252;11.654;2023-09-08T10:11:42;96414.63;;;25.86;54.05
74270;BME280;62754;48.252;11.654;2023-09-08T10:14:10;96422.25;;;26.07;52.83
74270;BME280;62754;48.252;11.654;2023-09-08T10:16:39;96409.56;;;26.60;51.65
74270;BME280;62754;48.252;11.654;2023-09-08T10:19:10;96412.28;;;27.03;51.39
74270;BME280;62754;48.252;11.654;2023-09-08T10:21:45;96416.38;;;26.99;50.66
74270;BME280;62754;48.252;11.654;2023-09-08T10:24:37;96416.41;;;27.35;48.72
74270;BME280;62754;48.252;11.654;2023-09-08T10:27:11;96416.09;;;27.68;48.54
74270;BME280;62754;48.252;11.654;2023-09-08T10:29:40;96410.91;;;28.10;47.88
74270;BME280;62754;48.252;11.654;2023-09-08T10:32:10;96405.19;;;27.94;47.10
74270;BME280;62754;48.252;11.654;2023-09-08T10:34:36;96403.91;;;27.97;46.09
74270;BME280;62754;48.252;11.654;2023-09-08T10:37:20;96411.09;;;27.60;47.52
74270;BME280;62754;48.252;11.654;2023-09-08T10:39:46;96411.47;;;27.64;47.31
74270;BME280;62754;48.252;11.654;2023-09-08T10:44:44;96404.53;;;27.44;47.61
74270;BME280;62754;48.252;11.654;2023-09-08T10:47:12;96413.78;;;27.35;47.11
74270;BME280;62754;48.252;11.654;2023-09-08T10:49:38;96402.03;;;27.86;47.66
74270;BME280;62754;48.252;11.654;2023-09-08T10:52:10;96408.34;;;28.03;47.25
74270;BME280;62754;48.252;11.654;2023-09-08T10:54:53;96409.00;;;27.99;46.74
74270;BME280;62754;48.252;11.654;2023-09-08T10:57:23;96401.63;;;28.01;46.77
74270;BME280;62754;48.252;11.654;2023-09-08T10:59:56;96400.38;;;28.03;45.81
74270;BME280;62754;48.252;11.654;2023-09-08T11:02:41;96399.53;;;27.36;47.33
74270;BME280;62754;48.252;11.654;2023-09-08T11:05:13;96399.00;;;27.28;47.24
74270;BME280;62754;48.252;11.654;2023-09-08T11:07:45;96400.34;;;27.37;46.36
74270;BME280;62754;48.252;11.654;2023-09-08T11:10:13;96407.09;;;27.87;45.92
74270;BME280;62754;48.252;11.654;2023-09-08T11:12:41;96405.72;;;27.49;47.09
74270;BME280;62754;48.252;11.654;2023-09-08T11:15:10;96397.06;;;27.60;48.48
74270;BME280;62754;48.252;11.654;2023-09-08T11:17:37;96401.50;;;27.77;45.60
74270;BME280;62754;48.252;11.654;2023-09-08T11:20:03;96401.75;;;27.58;45.55
74270;BME280;62754;48.252;11.654;2023-09-08T11:22:29;96399.88;;;27.94;46.40
74270;BME280;62754;48.252;11.654;2023-09-08T11:24:57;96401.38;;;28.20;44.98
74270;BME280;62754;48.252;11.654;2023-09-08T11:27:25;96391.75;;;29.02;43.31
74270;BME280;62754;48.252;11.654;2023-09-08T11:29:55;96393.59;;;29.37;43.72
74270;BME280;62754;48.252;11.654;2023-09-08T11:32:23;96399.56;;;29.67;43.29
74270;BME280;62754;48.252;11.654;2023-09-08T11:34:49;96396.97;;;30.40;41.23
74270;BME280;62754;48.252;11.654;2023-09-08T11:37:19;96398.34;;;30.88;40.31
74270;BME280;62754;48.252;11.654;2023-09-08T11:39:45;96400.81;;;31.28;39.46
74270;BME280;62754;48.252;11.654;2023-09-08T11:42:15;96392.06;;;31.32;39.43
74270;BME280;62754;48.252;11.654;2023-09-08T11:44:44;96395.38;;;31.78;36.83
74270;BME280;62754;48.252;11.654;2023-09-08T11:47:10;96399.69;;;32.27;37.42
74270;BME280;62754;48.252;11.654;2023-09-08T11:49:37;96395.94;;;32.87;35.65
74270;BME280;62754;48.252;11.654;2023-09-08T11:52:03;96395.44;;;32.31;36.55
74270;BME280;62754;48.252;11.654;2023-09-08T11:54:34;96384.84;;;32.68;36.32
74270;BME280;62754;48.252;11.654;2023-09-08T11:57:04;96380.97;;;33.18;35.76
74270;BME280;62754;48.252;11.654;2023-09-08T11:59:34;96378.34;;;33.23;36.83
74270;BME280;62754;48.252;11.654;2023-09-08T12:02:01;96380.78;;;33.34;34.34
74270;BME280;62754;48.252;11.654;2023-09-08T12:04:27;96380.19;;;33.17;33.83
74270;BME280;62754;48.252;11.654;2023-09-08T12:06:55;96391.09;;;33.63;34.25
74270;BME280;62754;48.252;11.654;2023-09-08T12:09:21;96382.63;;;33.24;35.32
74270;BME280;62754;48.252;11.654;2023-09-08T12:11:47;96382.97;;;33.94;33.36
74270;BME280;62754;48.252;11.654;2023-09-08T12:14:14;96378.72;;;34.09;34.14
74270;BME280;62754;48.252;11.654;2023-09-08T12:16:45;96378.19;;;34.12;34.20
74270;BME280;62754;48.252;11.654;2023-09-08T12:19:30;96374.25;;;34.44;33.40
74270;BME280;62754;48.252;11.654;2023-09-08T12:21:59;96379.06;;;34.48;32.22
74270;BME280;62754;48.252;11.654;2023-09-08T12:27:21;96376.94;;;35.00;30.45
74270;BME280;62754;48.252;11.654;2023-09-08T12:32:28;96366.97;;;35.41;30.66
74270;BME280;62754;48.252;11.654;2023-09-08T12:35:00;96362.75;;;35.10;30.74
74270;BME280;62754;48.252;11.654;2023-09-08T12:37:27;96369.41;;;35.22;31.57
74270;BME280;62754;48.252;11.654;2023-09-08T12:39:53;96360.56;;;35.27;31.44
74270;BME280;62754;48.252;11.654;2023-09-08T12:42:19;96360.75;;;35.51;30.14
74270;BME280;62754;48.252;11.654;2023-09-08T12:44:47;96362.34;;;35.62;31.08
74270;BME280;62754;48.252;11.654;2023-09-08T12:47:15;96363.31;;;35.91;30.02
74270;BME280;62754;48.252;11.654;2023-09-08T12:49:43;96367.88;;;35.91;28.97
74270;BME280;62754;48.252;11.654;2023-09-08T12:52:10;96363.06;;;36.32;28.02
74270;BME280;62754;48.252;11.654;2023-09-08T12:54:39;96359.75;;;36.11;28.50
74270;BME280;62754;48.252;11.654;2023-09-08T12:57:06;96355.63;;;36.23;28.54
74270;BME280;62754;48.252;11.654;2023-09-08T12:59:32;96353.56;;;36.49;27.88
74270;BME280;62754;48.252;11.654;2023-09-08T13:01:58;96356.09;;;36.30;28.25
74270;BME280;62754;48.252;11.654;2023-09-08T13:04:24;96361.63;;;36.10;28.47